createdAt,value
2023-04-12T00:03:20.385Z,6.22
2023-04-12T00:07:24.248Z,6.21
2023-04-12T00:11:27.538Z,6.17
2023-04-12T00:15:30.935Z,6.14
2023-04-12T00:19:35.373Z,6.11
2023-04-12T00:23:39.521Z,6.10
2023-04-12T00:27:42.626Z,6.09
2023-04-12T00:31:45.868Z,6.07
2023-04-12T00:35:50.444Z,6.06
2023-04-12T00:39:53.562Z,6.02
2023-04-12T00:43:57.023Z,6.01
2023-04-12T00:48:00.536Z,5.98
2023-04-12T00:52:10.115Z,5.93
2023-04-12T00:56:13.634Z,5.90
2023-04-12T01:00:17.494Z,5.87
2023-04-12T01:04:22.656Z,5.85
2023-04-12T01:08:37.862Z,5.83
2023-04-12T01:12:51.514Z,5.82
2023-04-12T01:16:59.601Z,5.82
2023-04-12T01:21:09.874Z,5.83
2023-04-12T01:25:26.415Z,5.84
2023-04-12T01:29:33.456Z,5.80
2023-04-12T01:33:39.556Z,5.77
2023-04-12T01:37:43.342Z,5.71
2023-04-12T01:41:49.118Z,5.68
2023-04-12T01:45:54.017Z,5.65
2023-04-12T01:50:04.329Z,5.59
2023-04-12T01:54:11.762Z,5.53
2023-04-12T01:58:18.613Z,5.47
2023-04-12T02:02:23.737Z,5.42
2023-04-12T02:06:28.130Z,5.40
2023-04-12T02:10:31.653Z,5.33
2023-04-12T02:14:35.023Z,5.28
2023-04-12T02:18:41.619Z,5.27
2023-04-12T02:22:47.451Z,5.28
2023-04-12T02:26:50.908Z,5.26
2023-04-12T02:30:54.737Z,5.27
2023-04-12T02:35:02.904Z,5.21
2023-04-12T02:39:07.917Z,5.21
2023-04-12T02:43:12.135Z,5.12
2023-04-12T02:47:19.894Z,5.05
2023-04-12T02:51:28.213Z,5.01
2023-04-12T02:55:33.714Z,5.03
2023-04-12T02:59:41.446Z,5.02
2023-04-12T03:03:50.555Z,5.01
2023-04-12T03:08:12.258Z,4.98
2023-04-12T03:12:22.899Z,4.95
2023-04-12T03:16:41.093Z,4.85
2023-04-12T03:20:49.844Z,4.79
2023-04-12T03:24:55.419Z,4.73
2023-04-12T03:29:02.061Z,4.64
2023-04-12T03:33:09.136Z,4.53
2023-04-12T03:37:12.972Z,4.42
2023-04-12T03:41:23.397Z,4.38
2023-04-12T03:45:26.999Z,4.34
2023-04-12T03:49:33.666Z,4.26
2023-04-12T03:53:38.212Z,4.20
2023-04-12T03:57:43.618Z,4.21
2023-04-12T04:01:48.526Z,4.22
2023-04-12T04:15:27.115Z,4.09
2023-04-12T04:19:32.500Z,4.07
2023-04-12T04:23:39.233Z,4.08
2023-04-12T04:27:45.100Z,4.02
2023-04-12T04:31:50.266Z,3.99
2023-04-12T04:36:10.061Z,3.94
2023-04-12T04:40:21.328Z,3.88
2023-04-12T04:44:28.420Z,3.81
2023-04-12T04:48:32.834Z,3.76
2023-04-12T04:57:06.493Z,3.62
2023-04-12T05:01:13.566Z,3.58
2023-04-12T05:05:18.614Z,3.58
2023-04-12T05:09:44.362Z,3.52
2023-04-12T05:13:48.377Z,3.54
2023-04-12T05:17:52.366Z,3.56
2023-04-12T05:21:56.597Z,3.61
2023-04-12T05:26:02.526Z,3.70
2023-04-12T05:30:22.100Z,3.76
2023-04-12T05:34:35.172Z,3.89
2023-04-12T05:38:40.976Z,3.94
2023-04-12T05:42:52.566Z,3.98
2023-04-12T05:47:02.098Z,4.00
2023-04-12T05:51:09.188Z,4.08
2023-04-12T05:55:13.820Z,4.19
2023-04-12T05:59:30.524Z,4.32
2023-04-12T06:03:43.889Z,4.47
2023-04-12T06:08:09.626Z,4.58
2023-04-12T06:12:25.279Z,4.73
2023-04-12T06:20:59.520Z,5.13
2023-04-12T06:25:09.815Z,5.41
2023-04-12T06:29:24.929Z,5.76
2023-04-12T06:33:45.650Z,5.99
2023-04-12T06:37:56.830Z,6.24
2023-04-12T06:42:07.379Z,6.45
2023-04-12T06:46:21.320Z,6.67
2023-04-12T06:50:39.769Z,6.84
2023-04-12T06:55:02.171Z,6.99
2023-04-12T07:07:48.002Z,7.55
2023-04-12T07:11:51.082Z,7.69
2023-04-12T07:15:54.556Z,7.91
2023-04-12T07:19:57.578Z,8.10
2023-04-12T07:24:01.972Z,8.30
2023-04-12T07:28:07.001Z,8.52
2023-04-12T07:32:11.958Z,8.72
2023-04-12T07:36:16.635Z,8.89
2023-04-12T07:40:21.510Z,9.09
2023-04-12T07:44:24.605Z,9.23
2023-04-12T07:48:27.875Z,9.42
2023-04-12T07:52:30.955Z,9.59
2023-04-12T07:56:36.766Z,9.66
2023-04-12T08:00:39.783Z,9.71
2023-04-12T08:04:44.933Z,9.79
2023-04-12T08:08:48.185Z,9.94
2023-04-12T08:12:52.583Z,10.09
2023-04-12T08:16:55.581Z,10.30
2023-04-12T08:20:59.142Z,10.44
2023-04-12T08:25:02.203Z,10.53
2023-04-12T08:29:07.029Z,10.60
2023-04-12T08:33:10.073Z,10.71
2023-04-12T08:37:13.146Z,10.82
2023-04-12T08:41:16.733Z,10.83
2023-04-12T08:45:23.835Z,10.88
2023-04-12T08:49:27.112Z,10.92
2023-04-12T08:53:30.159Z,10.87
2023-04-12T08:57:33.927Z,10.88
2023-04-12T09:01:41.912Z,11.01
2023-04-12T09:05:45.106Z,11.14
2023-04-12T09:09:49.342Z,11.02
2023-04-12T09:13:52.447Z,11.09
2023-04-12T09:18:08.718Z,11.21
2023-04-12T09:22:11.787Z,11.19
2023-04-12T09:26:28.650Z,11.23
2023-04-12T10:06:18.538Z,11.60
2023-04-12T10:10:22.456Z,11.83
2023-04-12T10:14:29.253Z,12.01
2023-04-12T10:18:32.775Z,12.05
2023-04-12T10:22:37.439Z,12.14
2023-04-12T10:26:43.654Z,12.35
2023-04-12T10:30:48.234Z,12.49
2023-04-12T10:34:53.059Z,12.49
2023-04-12T10:39:12.125Z,12.57
2023-04-12T10:43:28.029Z,12.64
2023-04-12T10:48:01.906Z,12.71
2023-04-12T10:52:18.125Z,12.77
2023-04-12T10:56:40.020Z,12.86
2023-04-12T11:01:11.661Z,13.03
2023-04-12T11:05:19.236Z,13.21
2023-04-12T11:09:28.533Z,13.11
2023-04-12T11:13:37.031Z,13.04
2023-04-12T11:17:40.054Z,13.06
2023-04-12T11:21:43.489Z,13.11
2023-04-12T11:25:51.126Z,13.24
2023-04-12T11:29:57.143Z,13.40
2023-04-12T11:34:01.138Z,13.58
2023-04-12T11:38:04.929Z,13.81
2023-04-12T11:42:09.396Z,14.04
2023-04-12T11:46:14.054Z,14.18
2023-04-12T11:50:29.862Z,14.19
2023-04-12T11:54:34.218Z,14.33
2023-04-12T11:58:37.146Z,14.46
2023-04-12T12:02:52.244Z,14.47
2023-04-12T12:07:00.339Z,14.46
2023-04-12T12:11:07.908Z,14.30
2023-04-12T12:15:11.963Z,14.18
2023-04-12T12:19:16.216Z,14.25
2023-04-12T12:23:32.120Z,14.48
2023-04-12T12:27:37.340Z,14.51
2023-04-12T12:31:47.761Z,14.54
2023-04-12T12:35:58.054Z,14.50
2023-04-12T12:40:11.284Z,14.49
2023-04-12T12:44:14.408Z,14.44
2023-04-12T12:48:19.358Z,14.43
2023-04-12T12:52:23.963Z,14.47
2023-04-12T12:56:27.051Z,14.62
2023-04-12T13:00:31.584Z,14.69
2023-04-12T13:04:35.084Z,14.57
2023-04-12T13:08:39.406Z,14.61
2023-04-12T13:12:42.452Z,14.61
2023-04-12T13:16:46.110Z,14.60
2023-04-12T13:20:49.299Z,14.62
2023-04-12T13:24:53.552Z,14.57
2023-04-12T13:28:56.879Z,14.64
2023-04-12T13:33:00.331Z,14.69
2023-04-12T13:37:04.024Z,14.76
2023-04-12T13:41:08.741Z,14.70
2023-04-12T13:45:12.889Z,14.75
2023-04-12T13:49:15.764Z,14.63
2023-04-12T13:53:18.684Z,14.55
2023-04-12T13:57:23.557Z,14.42
2023-04-12T14:01:27.034Z,14.33
2023-04-12T14:05:30.074Z,14.29
2023-04-12T14:09:33.817Z,14.19
2023-04-12T14:13:38.272Z,14.15
2023-04-12T14:17:41.361Z,14.07
2023-04-12T14:21:44.349Z,14.06
2023-04-12T14:25:47.267Z,13.95
2023-04-12T14:29:51.530Z,13.85
2023-04-12T14:33:54.454Z,13.82
2023-04-12T14:37:57.461Z,13.80
2023-04-12T14:42:01.320Z,13.76
2023-04-12T14:46:05.987Z,13.75
2023-04-12T14:50:09.516Z,13.73
2023-04-12T14:54:12.400Z,13.72
2023-04-12T14:58:15.320Z,13.63
2023-04-12T15:02:22.158Z,13.54
2023-04-12T15:06:27.203Z,13.53
2023-04-12T15:10:31.531Z,13.55
2023-04-12T15:14:34.629Z,13.57
2023-04-12T15:18:41.682Z,13.60
2023-04-12T15:22:44.995Z,13.60
2023-04-12T15:26:48.725Z,13.58
2023-04-12T15:30:51.814Z,13.61
2023-04-12T15:34:56.647Z,13.56
2023-04-12T15:38:59.554Z,13.59
2023-04-12T15:43:02.448Z,13.58
2023-04-12T15:47:11.033Z,13.54
2023-04-12T15:51:16.534Z,13.52
2023-04-12T15:55:21.856Z,13.58
2023-04-12T15:59:24.749Z,13.55
2023-04-12T16:03:27.730Z,13.55
2023-04-12T16:07:33.901Z,13.57
2023-04-12T16:11:37.215Z,13.55
2023-04-12T16:15:40.759Z,13.50
2023-04-12T16:19:43.806Z,13.47
2023-04-12T16:23:49.196Z,13.43
2023-04-12T16:27:52.308Z,13.40
2023-04-12T16:31:55.302Z,13.36
2023-04-12T16:35:58.485Z,13.36
2023-04-12T16:40:05.065Z,13.35
2023-04-12T16:44:08.027Z,13.33
2023-04-12T16:48:11.754Z,13.35
2023-04-12T16:52:15.466Z,13.30
2023-04-12T16:56:19.989Z,13.29
2023-04-12T17:00:23.804Z,13.27
2023-04-12T17:04:26.810Z,13.23
2023-04-12T17:08:29.790Z,13.20
2023-04-12T17:12:34.101Z,13.19
2023-04-12T17:16:37.332Z,13.16
2023-04-12T17:20:40.510Z,13.13
2023-04-12T17:24:43.993Z,13.08
2023-04-12T17:28:48.347Z,13.11
2023-04-12T17:32:52.287Z,13.21
2023-04-12T17:36:55.713Z,13.28
2023-04-12T17:40:58.694Z,13.21
2023-04-12T17:45:03.465Z,13.14
2023-04-12T17:49:06.720Z,13.06
2023-04-12T17:53:09.709Z,13.03
2023-04-12T17:57:13.440Z,12.99
2023-04-12T18:01:17.871Z,12.93
2023-04-12T18:05:20.829Z,12.85
2023-04-12T18:09:23.776Z,12.77
2023-04-12T18:13:27.232Z,12.66
2023-04-12T18:17:32.032Z,12.58
2023-04-12T18:21:35.852Z,12.53
2023-04-12T18:25:39.789Z,12.49
2023-04-12T18:29:42.685Z,12.47
2023-04-12T18:33:47.794Z,12.40
2023-04-12T18:37:50.767Z,12.35
2023-04-12T18:41:54.216Z,12.34
2023-04-12T18:45:57.173Z,12.30
2023-04-12T18:50:01.671Z,12.26
2023-04-12T18:54:05.199Z,12.21
2023-04-12T18:58:08.240Z,12.14
2023-04-12T19:02:12.253Z,12.06
2023-04-12T19:06:17.059Z,12.06
2023-04-12T19:10:20.083Z,12.03
2023-04-12T19:14:23.651Z,12.02
2023-04-12T19:18:29.986Z,11.98
2023-04-12T19:22:34.278Z,11.93
2023-04-12T19:26:39.945Z,11.90
2023-04-12T19:30:42.867Z,11.90
2023-04-12T19:34:46.639Z,11.90
2023-04-12T19:38:51.866Z,11.88
2023-04-12T19:42:55.038Z,11.86
2023-04-12T19:46:57.947Z,11.85
2023-04-12T19:51:00.956Z,11.81
2023-04-12T19:55:05.962Z,11.71
2023-04-12T19:59:10.556Z,11.64
2023-04-12T20:03:13.477Z,11.61
2023-04-12T20:07:16.440Z,11.60
2023-04-12T20:11:21.508Z,11.58
2023-04-12T20:15:24.596Z,11.55
2023-04-12T20:19:28.184Z,11.48
2023-04-12T20:23:31.993Z,11.43
2023-04-12T20:27:36.687Z,11.40
2023-04-12T20:31:39.613Z,11.36
2023-04-12T20:35:43.362Z,11.32
2023-04-12T20:39:46.336Z,11.30
2023-04-12T20:43:50.905Z,11.26
2023-04-12T20:47:53.838Z,11.25
2023-04-12T20:51:57.241Z,11.23
2023-04-12T20:56:00.222Z,11.20
2023-04-12T21:00:12.488Z,11.17
2023-04-12T21:04:15.613Z,11.13
2023-04-12T21:08:18.752Z,11.05
2023-04-12T21:12:21.666Z,10.96
2023-04-12T21:16:26.264Z,10.93
2023-04-12T21:20:30.400Z,10.87
2023-04-12T21:24:38.097Z,10.79
2023-04-12T21:28:41.040Z,10.75
2023-04-12T21:32:45.600Z,10.71
2023-04-12T21:36:48.608Z,10.70
2023-04-12T21:40:52.017Z,10.70
2023-04-12T21:44:54.952Z,10.69
2023-04-12T21:48:59.433Z,10.68
2023-04-12T21:53:02.505Z,10.66
2023-04-12T21:57:06.249Z,10.61
2023-04-12T22:01:09.264Z,10.58
2023-04-12T22:05:13.632Z,10.55
2023-04-12T22:09:16.549Z,10.53
2023-04-12T22:13:23.615Z,10.47
2023-04-12T22:17:26.644Z,10.34
2023-04-12T22:21:31.019Z,10.34
2023-04-12T22:25:35.219Z,10.35
2023-04-12T22:29:38.439Z,10.33
2023-04-12T22:33:41.382Z,10.31
2023-04-12T22:37:45.688Z,10.26
2023-04-12T22:41:49.725Z,10.26
2023-04-12T22:45:54.129Z,10.21
2023-04-12T22:49:58.213Z,10.12
2023-04-12T22:54:06.081Z,10.10
2023-04-12T22:58:09.197Z,10.07
2023-04-12T23:02:12.215Z,10.08
2023-04-12T23:06:15.246Z,10.08
2023-04-12T23:10:20.634Z,10.09
2023-04-12T23:14:23.913Z,10.05
2023-04-12T23:18:27.426Z,10.04
2023-04-12T23:22:56.125Z,10.02
2023-04-12T23:27:03.015Z,10.00
2023-04-12T23:31:07.024Z,9.99
2023-04-12T23:35:10.662Z,9.97
2023-04-12T23:39:13.617Z,9.87
2023-04-12T23:43:17.883Z,9.86
2023-04-12T23:47:20.765Z,9.88
2023-04-12T23:51:23.708Z,9.87
2023-04-12T23:55:26.745Z,9.88
2023-04-12T23:59:31.548Z,9.87
